NEW HOGAN LAKE (NHG)

Elevation: 554' · CALAVERAS R basin · Operator: US Army Corps of Engineers

Provisional data, subject to change.
Query executed Friday at 5:11:23   clock

Select a sensor type for a plot of data.
Note: Reservoir Flows are daily averages.

Earlier

Date RES ELE    STORAGE    RES CHG    TOC STO    ABV TOC    OUTFLOW    INFLOW    FNF    PPT INC    TEMP MN    TEMP MX   
 FEET   AF   AF   AF   AF   CFS   CFS   CFS   INCHES   DEG F   DEG F  
08/05/2015 611.37 40009 -430 317100 -277091 198 -6 -6 0.00 14 32
08/06/2015 611.04 39581 -428 317100 -277519 203 -4 -4 0.00 17 30
08/07/2015 610.68 39118 -463 317100 -277982 211 -9 -9 0.00 19 33
08/08/2015 610.34 38684 -434 317100 -278416 202 -4 -4 0.00 15 32
08/09/2015 610.10 38379 -305 317100 -278721 146 5 5 0.00 16 34
08/10/2015 609.97 38214 -165 317100 -278886 79 9 9 0.00 17 31
08/11/2015 609.87 38088 -126 317100 -279012 32 -17 -17 0.00 15 33
08/12/2015 609.81 38012 -76 317100 -279088 33 8 8 0.00 16 32
08/13/2015 609.73 37912 -100 317100 -279188 34 -3 -3 0.00 16 33
08/14/2015 609.65 37811 -101 317100 -279289 34 -4 -4 0.00 15 32
08/15/2015 609.53 37660 -151 317100 -279440 44 -17 -17 0.00 17 37
08/16/2015 609.45 37560 -100 317100 -279540 51 17 17 0.00 19 40
08/17/2015 609.34 37423 -137 317100 -279677 52 -1 -1 0.00 20 40
08/18/2015 609.23 37286 -137 317100 -279814 52 -3 -3 0.00 20 35
08/19/2015 609.09 37112 -174 317100 -279988 52 -23 -23 0.00 15 34
08/20/2015 609.02 37025 -87 317100 -280075 52 20 20 0.00 14 32
08/21/2015 608.91 36888 -137 317100 -280212 52 -5 -5 0.00 15 33
08/22/2015 608.81 36765 -123 317100 -280335 52 3 3 0.00 14 34
08/23/2015 608.67 36592 -173 317100 -280508 52 -23 -23 0.00 14 33
08/24/2015 608.59 36494 -98 317100 -280606 52 15 15 0.00 15 34
08/25/2015 608.48 36359 -135 317100 -280741 52 -2 -2 0.00 17 36
08/26/2015 608.38 36236 -- 317100 -280864 52 4 4 0.00 16 36
08/27/2015 608.27 36102 -134 317100 -280998 52 -1 -1 0.00 18 38
08/28/2015 608.16 35968 -134 317100 -281132 53 -1 -1 0.00 18 39
08/29/2015 608.05 35834 -134 317100 -281266 53 -4 -4 0.00 19 30
08/30/2015 607.37 35013 -821 317100 -282087 330 -73 -73 0.00 16 30
08/31/2015 606.70 34216 -797 317100 -282884 452 62 62 0.00 14 33
09/01/2015 606.17 33593 -623 317100 -283507 301 0 0 0.00 16 35
09/02/2015 605.78 33139 -454 317100 -283961 240 22 22 0.00 15 31
09/03/2015 605.36 32655 -484 317100 -- 221 -13 -- 0.00 13 28
09/04/2015 -- -- -- -- -- -- -- -- -- -- --

Later | Latest

Warning! This data is preliminary and subject to revision.

Show NHG Map | Plot NHG Data | 1 Month NHG Data | Real-Time NHG Data | NHG Info